createdAt,value
2018-08-25T00:01:21.925Z,18.67
2018-08-25T00:12:20.835Z,18.62
2018-08-25T00:23:22.591Z,18.65
2018-08-25T00:34:21.796Z,18.71
2018-08-25T00:45:21.995Z,18.58
2018-08-25T00:56:23.278Z,18.52
2018-08-25T01:07:24.669Z,18.58
2018-08-25T01:18:26.850Z,18.64
2018-08-25T01:29:28.938Z,18.58
2018-08-25T01:40:30.700Z,18.58
2018-08-25T01:51:30.605Z,18.52
2018-08-25T02:02:30.415Z,18.46
2018-08-25T02:13:29.487Z,18.25
2018-08-25T02:24:29.654Z,18.09
2018-08-25T02:35:31.551Z,18.16
2018-08-25T02:46:32.785Z,18.06
2018-08-25T02:57:33.813Z,17.98
2018-08-25T03:08:35.981Z,18.11
2018-08-25T03:19:36.217Z,17.92
2018-08-25T03:30:37.855Z,17.64
2018-08-25T03:41:39.492Z,17.76
2018-08-25T03:52:41.271Z,17.81
2018-08-25T04:03:43.327Z,17.70
2018-08-25T04:14:44.942Z,17.69
2018-08-25T04:25:47.309Z,17.74
2018-08-25T04:36:48.962Z,17.71
2018-08-25T04:47:50.212Z,17.74
2018-08-25T04:58:50.902Z,17.70
2018-08-25T05:09:52.622Z,17.67
2018-08-25T05:20:52.934Z,17.70
2018-08-25T05:31:54.867Z,17.87
2018-08-25T05:42:54.920Z,17.85
2018-08-25T05:53:56.761Z,17.77
2018-08-25T06:04:58.319Z,17.96
2018-08-25T06:16:00.140Z,18.19
2018-08-25T06:26:58.559Z,18.43
2018-08-25T06:38:00.511Z,18.32
2018-08-25T06:49:02.444Z,18.35
2018-08-25T07:00:02.491Z,18.31
2018-08-25T07:10:54.829Z,18.49
2018-08-25T07:21:56.121Z,18.44
2018-08-25T07:32:56.147Z,18.58
2018-08-25T07:43:58.424Z,18.57
2018-08-25T07:54:57.527Z,18.49
2018-08-25T08:05:55.008Z,18.61
2018-08-25T08:16:47.893Z,18.32
2018-08-25T08:27:45.783Z,18.46
2018-08-25T08:38:42.807Z,18.55
2018-08-25T08:49:46.595Z,18.79
2018-08-25T09:00:46.360Z,18.94
2018-08-25T09:11:47.495Z,18.90
2018-08-25T09:22:49.384Z,18.67
2018-08-25T09:33:48.626Z,18.86
2018-08-25T09:44:50.129Z,18.83
2018-08-25T09:55:47.312Z,18.53
2018-08-25T10:06:49.145Z,18.52
2018-08-25T10:17:51.115Z,18.52
2018-08-25T10:28:51.860Z,18.43
2018-08-25T10:39:53.204Z,18.49
2018-08-25T10:50:46.970Z,18.18
2018-08-25T11:01:38.207Z,18.32
2018-08-25T11:12:32.814Z,18.32
2018-08-25T11:23:24.624Z,18.35
2018-08-25T11:34:20.526Z,18.25
2018-08-25T11:45:21.492Z,18.14
2018-08-25T11:56:18.038Z,18.10
2018-08-25T12:07:17.461Z,18.13
2018-08-25T12:18:13.746Z,17.87
2018-08-25T12:29:12.835Z,17.81
2018-08-25T12:40:10.412Z,17.89
2018-08-25T12:51:09.979Z,18.13
2018-08-25T13:02:10.995Z,18.44
2018-08-25T13:13:10.810Z,18.35
2018-08-25T13:24:11.355Z,17.94
2018-08-25T13:35:05.265Z,17.71
2018-08-25T13:46:07.561Z,17.91
2018-08-25T13:57:08.869Z,17.63
2018-08-25T14:08:07.778Z,17.28
2018-08-25T14:19:07.444Z,17.11
2018-08-25T14:30:00.950Z,17.13
2018-08-25T14:40:58.481Z,17.07
2018-08-25T14:52:00.203Z,17.15
2018-08-25T15:02:59.582Z,16.88
2018-08-25T15:13:58.459Z,16.78
2018-08-25T15:25:00.673Z,16.81
2018-08-25T15:36:03.093Z,16.59
2018-08-25T15:47:04.899Z,16.53
2018-08-25T15:58:04.522Z,16.80
2018-08-25T16:09:05.998Z,16.73
2018-08-25T16:20:01.895Z,16.45
2018-08-25T16:30:58.867Z,16.48
2018-08-25T16:41:52.288Z,16.37
2018-08-25T16:52:49.890Z,16.15
2018-08-25T17:03:43.260Z,16.07
2018-08-25T17:14:41.483Z,15.91
2018-08-25T17:25:43.239Z,15.91
2018-08-25T17:36:42.032Z,15.96
2018-08-25T17:47:41.614Z,15.83
2018-08-25T17:58:40.674Z,15.73
2018-08-25T18:09:37.595Z,15.70
2018-08-25T18:20:37.476Z,15.61
2018-08-25T18:31:37.310Z,15.23
2018-08-25T18:42:32.341Z,15.05
2018-08-25T18:53:33.451Z,15.05
2018-08-25T19:04:35.535Z,15.20
2018-08-25T19:15:36.456Z,15.06
2018-08-25T19:26:29.049Z,14.93
2018-08-25T19:37:27.924Z,14.84
2018-08-25T19:48:26.953Z,14.75
2018-08-25T19:59:26.500Z,14.85
2018-08-25T20:10:28.083Z,14.64
2018-08-25T20:21:30.131Z,14.67
2018-08-25T20:32:30.996Z,14.85
2018-08-25T20:43:31.366Z,14.74
2018-08-25T20:54:32.923Z,14.79
2018-08-25T21:05:33.612Z,14.74
2018-08-25T21:16:35.781Z,14.65
2018-08-25T21:27:35.391Z,14.35
2018-08-25T21:38:36.276Z,14.44
2018-08-25T21:49:38.325Z,14.28
2018-08-25T22:00:39.371Z,14.27
2018-08-25T22:11:41.847Z,14.28
2018-08-25T22:22:43.007Z,14.44
2018-08-25T22:33:44.750Z,14.36
2018-08-25T22:44:45.160Z,14.36
2018-08-25T22:55:44.741Z,14.24
2018-08-25T23:06:46.076Z,14.19
2018-08-25T23:17:49.315Z,14.16
2018-08-25T23:28:52.380Z,14.07
2018-08-25T23:39:54.718Z,14.09
2018-08-25T23:50:56.212Z,14.02
